createdAt,value
2022-08-25T00:01:52.636Z,100603.00
2022-08-25T00:05:58.577Z,100600.66
2022-08-25T00:10:01.706Z,100601.16
2022-08-25T00:14:10.559Z,100603.44
2022-08-25T00:18:19.548Z,100605.66
2022-08-25T00:22:24.332Z,100604.09
2022-08-25T00:26:27.715Z,100606.94
2022-08-25T00:30:30.870Z,100607.19
2022-08-25T00:34:36.710Z,100605.78
2022-08-25T00:38:42.305Z,100595.75
2022-08-25T00:42:45.426Z,100609.66
2022-08-25T00:46:50.606Z,100606.50
2022-08-25T00:50:53.657Z,100615.50
2022-08-25T00:55:08.145Z,100617.81
2022-08-25T00:59:12.515Z,100610.56
2022-08-25T01:03:16.407Z,100616.38
2022-08-25T01:07:22.319Z,100607.84
2022-08-25T01:11:27.868Z,100620.75
2022-08-25T01:15:31.269Z,100610.69
2022-08-25T01:19:34.512Z,100619.13
2022-08-25T01:23:38.878Z,100620.03
2022-08-25T01:27:41.890Z,100618.38
2022-08-25T01:31:45.431Z,100613.03
2022-08-25T01:35:49.116Z,100613.66
2022-08-25T01:39:54.200Z,100611.97
2022-08-25T01:43:57.543Z,100611.59
2022-08-25T01:48:00.607Z,100616.75
2022-08-25T01:52:08.458Z,100609.50
2022-08-25T01:56:15.946Z,100611.19
2022-08-25T02:00:22.448Z,100611.19
2022-08-25T02:04:26.908Z,100620.41
2022-08-25T02:08:29.965Z,100622.31
2022-08-25T02:18:28.407Z,100606.75
2022-08-25T02:22:31.374Z,100600.13
2022-08-25T02:26:36.285Z,100604.00
2022-08-25T02:30:43.575Z,100604.84
2022-08-25T02:34:48.035Z,100606.25
2022-08-25T02:38:51.743Z,100600.13
2022-08-25T02:42:55.555Z,100589.28
2022-08-25T02:46:59.588Z,100593.47
2022-08-25T02:51:06.555Z,100593.47
2022-08-25T02:55:14.316Z,100598.44
2022-08-25T02:59:19.629Z,100594.22
2022-08-25T03:03:22.814Z,100596.66
2022-08-25T03:07:27.270Z,100592.69
2022-08-25T03:11:32.858Z,100585.97
2022-08-25T03:15:37.847Z,100584.22
2022-08-25T03:19:41.102Z,100583.06
2022-08-25T03:23:46.547Z,100585.28
2022-08-25T03:27:49.810Z,100587.41
2022-08-25T03:31:54.905Z,100577.97
2022-08-25T03:35:58.539Z,100565.22
2022-08-25T03:40:03.951Z,100578.09
2022-08-25T03:44:09.209Z,100578.16
2022-08-25T03:48:14.288Z,100564.78
2022-08-25T03:52:18.369Z,100554.25
2022-08-25T03:56:23.298Z,100542.66
2022-08-25T04:00:27.567Z,100541.03
2022-08-25T04:04:31.165Z,100543.81
2022-08-25T04:08:34.575Z,100554.84
2022-08-25T04:12:39.604Z,100558.47
2022-08-25T04:16:42.802Z,100548.72
2022-08-25T04:20:47.527Z,100550.47
2022-08-25T04:24:50.596Z,100544.69
2022-08-25T04:28:56.244Z,100544.44
2022-08-25T04:32:59.407Z,100543.91
2022-08-25T04:37:06.402Z,100543.06
2022-08-25T04:41:11.853Z,100536.13
2022-08-25T04:45:16.331Z,100542.78
2022-08-25T04:49:19.780Z,100534.97
2022-08-25T04:53:22.845Z,100529.41
2022-08-25T04:57:25.970Z,100530.00
2022-08-25T05:01:31.780Z,100531.66
2022-08-25T05:05:38.031Z,100526.94
2022-08-25T05:09:41.215Z,100531.66
2022-08-25T05:13:46.345Z,100521.94
2022-08-25T05:17:56.235Z,100527.78
2022-08-25T05:21:59.391Z,100518.34
2022-08-25T05:26:04.991Z,100520.00
2022-08-25T05:30:09.888Z,100524.44
2022-08-25T05:34:14.418Z,100531.13
2022-08-25T05:38:17.854Z,100525.84
2022-08-25T05:42:22.556Z,100527.78
2022-08-25T05:46:26.199Z,100526.09
2022-08-25T05:50:30.635Z,100514.97
2022-08-25T05:54:33.735Z,100530.28
2022-08-25T05:58:37.963Z,100538.34
2022-08-25T06:02:46.392Z,100535.81
2022-08-25T06:06:53.950Z,100531.03
2022-08-25T06:10:57.103Z,100532.09
2022-08-25T06:15:00.956Z,100538.47
2022-08-25T06:19:04.128Z,100536.47
2022-08-25T06:23:08.580Z,100545.88
2022-08-25T06:27:11.619Z,100546.88
2022-08-25T06:31:14.877Z,100538.88
2022-08-25T06:35:20.871Z,100548.84
2022-08-25T06:39:25.319Z,100536.13
2022-08-25T06:43:28.430Z,100537.94
2022-08-25T06:47:31.581Z,100543.44
2022-08-25T06:51:36.392Z,100550.44
2022-08-25T06:55:41.396Z,100547.59
2022-08-25T06:59:44.442Z,100553.50
2022-08-25T07:03:47.685Z,100546.81
2022-08-25T07:07:52.104Z,100536.81
2022-08-25T07:11:56.704Z,100537.75
2022-08-25T07:16:01.372Z,100537.47
2022-08-25T07:20:06.604Z,100527.78
2022-08-25T07:24:13.712Z,100534.78
2022-08-25T07:28:18.759Z,100542.28
2022-08-25T07:32:21.885Z,100532.84
2022-08-25T07:36:25.375Z,100528.91
2022-08-25T07:40:33.448Z,100529.00
2022-08-25T07:44:38.087Z,100530.03
2022-08-25T07:48:41.232Z,100536.69
2022-08-25T07:52:44.233Z,100546.97
2022-08-25T07:56:55.236Z,100540.38
2022-08-25T08:00:59.680Z,100536.75
2022-08-25T08:05:02.807Z,100537.84
2022-08-25T08:09:05.894Z,100540.38
2022-08-25T08:13:10.180Z,100539.09
2022-08-25T08:17:15.099Z,100536.94
2022-08-25T08:21:22.395Z,100529.75
2022-08-25T08:25:27.380Z,100529.19
2022-08-25T08:29:30.960Z,100518.75
2022-08-25T08:33:40.886Z,100522.56
2022-08-25T08:37:44.106Z,100524.03
2022-08-25T08:42:19.708Z,100522.31
2022-08-25T08:46:25.914Z,100520.28
2022-08-25T08:50:35.785Z,100515.72
2022-08-25T08:54:41.950Z,100512.88
2022-08-25T08:58:49.935Z,100509.41
2022-08-25T09:02:58.683Z,100523.31
2022-08-25T09:07:07.987Z,100513.94
2022-08-25T09:11:24.331Z,100509.63
2022-08-25T09:15:51.767Z,100519.22
2022-08-25T09:20:18.719Z,100517.31
2022-08-25T09:24:40.333Z,100517.53
2022-08-25T09:28:51.332Z,100517.78
2022-08-25T09:33:03.951Z,100521.88
2022-08-25T09:37:09.225Z,100515.34
2022-08-25T09:41:19.527Z,100520.63
2022-08-25T09:45:43.674Z,100514.78
2022-08-25T09:49:51.055Z,100519.50
2022-08-25T09:53:57.008Z,100520.03
2022-08-25T09:58:02.338Z,100500.59
2022-08-25T10:02:25.398Z,100492.94
2022-08-25T10:06:35.101Z,100491.31
2022-08-25T10:10:45.236Z,100492.63
2022-08-25T10:14:49.778Z,100478.56
2022-08-25T10:19:04.976Z,100471.28
2022-08-25T10:23:13.215Z,100465.09
2022-08-25T10:27:27.409Z,100463.47
2022-08-25T10:31:38.220Z,100473.50
2022-08-25T10:35:58.351Z,100470.19
2022-08-25T10:40:12.259Z,100468.28
2022-08-25T10:44:40.125Z,100467.09
2022-08-25T10:49:03.766Z,100462.44
2022-08-25T10:53:22.252Z,100450.31
2022-08-25T10:57:35.968Z,100436.00
2022-08-25T11:01:53.635Z,100434.47
2022-08-25T11:06:02.925Z,100430.59
2022-08-25T11:10:11.765Z,100426.69
2022-08-25T11:14:20.961Z,100409.72
2022-08-25T11:18:31.832Z,100420.22
2022-08-25T11:22:42.792Z,100409.34
2022-08-25T11:26:53.227Z,100404.63
2022-08-25T11:30:59.542Z,100402.44
2022-08-25T11:35:05.643Z,100399.94
2022-08-25T11:39:18.323Z,100404.28
2022-08-25T11:43:38.069Z,100402.00
2022-08-25T11:48:01.469Z,100395.84
2022-08-25T11:52:07.504Z,100396.00
2022-08-25T11:56:32.582Z,100398.03
2022-08-25T12:00:41.464Z,100388.50
2022-08-25T12:04:45.689Z,100380.84
2022-08-25T12:08:52.497Z,100384.59
2022-08-25T12:13:04.860Z,100386.94
2022-08-25T12:17:38.436Z,100382.06
2022-08-25T12:21:42.921Z,100365.72
2022-08-25T12:25:54.961Z,100355.41
2022-08-25T12:30:05.103Z,100342.75
2022-08-25T12:34:31.243Z,100350.13
2022-08-25T12:38:43.311Z,100361.63
2022-08-25T12:42:47.920Z,100347.13
2022-08-25T12:47:11.911Z,100332.91
2022-08-25T12:51:20.386Z,100347.44
2022-08-25T12:55:27.315Z,100340.59
2022-08-25T12:59:37.658Z,100331.41
2022-08-25T13:04:01.683Z,100350.66
2022-08-25T13:08:33.801Z,100336.75
2022-08-25T13:12:45.222Z,100355.13
2022-08-25T13:16:59.594Z,100340.00
2022-08-25T13:21:15.034Z,100331.16
2022-08-25T13:25:21.205Z,100338.75
2022-08-25T13:29:36.886Z,100323.91
2022-08-25T13:33:51.953Z,100314.50
2022-08-25T13:38:18.013Z,100319.66
2022-08-25T13:42:21.082Z,100323.75
2022-08-25T13:46:32.063Z,100316.56
2022-08-25T13:50:42.655Z,100309.19
2022-08-25T13:54:50.183Z,100323.78
2022-08-25T13:58:53.303Z,100299.34
2022-08-25T14:03:02.082Z,100296.22
2022-08-25T14:07:19.621Z,100283.41
2022-08-25T14:11:32.363Z,100288.28
2022-08-25T14:15:35.699Z,100283.56
2022-08-25T14:19:47.706Z,100261.66
2022-08-25T14:23:51.433Z,100271.16
2022-08-25T14:28:09.148Z,100273.41
2022-08-25T14:32:16.816Z,100265.09
2022-08-25T14:36:20.858Z,100264.50
2022-08-25T14:40:24.527Z,100267.53
2022-08-25T14:44:28.947Z,100266.81
2022-08-25T14:48:36.424Z,100274.63
2022-08-25T14:52:39.599Z,100251.53
2022-08-25T14:56:43.389Z,100248.19
2022-08-25T15:00:49.296Z,100250.25
2022-08-25T15:04:54.548Z,100245.88
2022-08-25T15:09:11.547Z,100263.34
2022-08-25T15:13:15.161Z,100258.03
2022-08-25T15:17:19.547Z,100255.16
2022-08-25T15:21:22.704Z,100252.16
2022-08-25T15:25:25.857Z,100258.38
2022-08-25T15:29:31.939Z,100248.63
2022-08-25T15:33:36.452Z,100255.97
2022-08-25T15:37:41.082Z,100244.53
2022-08-25T15:41:44.571Z,100239.00
2022-08-25T15:45:49.856Z,100235.19
2022-08-25T15:50:05.187Z,100239.56
2022-08-25T15:54:09.126Z,100236.72
2022-08-25T15:58:12.552Z,100235.78
2022-08-25T16:02:15.963Z,100230.59
2022-08-25T16:06:21.108Z,100227.91
2022-08-25T16:10:24.634Z,100210.88
2022-08-25T16:14:28.456Z,100212.31
2022-08-25T16:18:32.712Z,100210.38
2022-08-25T16:22:37.901Z,100208.22
2022-08-25T16:26:48.023Z,100205.28
2022-08-25T16:30:52.968Z,100196.38
2022-08-25T16:34:56.240Z,100196.00
2022-08-25T16:39:01.770Z,100200.56
2022-08-25T16:43:05.347Z,100190.28
2022-08-25T16:47:09.135Z,100199.88
2022-08-25T16:51:14.470Z,100196.03
2022-08-25T16:55:19.245Z,100193.78
2022-08-25T16:59:23.609Z,100201.03
2022-08-25T17:03:29.070Z,100182.19
2022-08-25T17:07:36.037Z,100185.75
2022-08-25T17:11:46.653Z,100186.34
2022-08-25T17:15:52.328Z,100177.66
2022-08-25T17:19:55.915Z,100177.91
2022-08-25T17:23:59.573Z,100179.50
2022-08-25T17:28:04.915Z,100185.59
2022-08-25T17:32:10.190Z,100185.31
2022-08-25T17:36:17.348Z,100183.97
2022-08-25T17:40:23.268Z,100185.13
2022-08-25T17:44:31.107Z,100191.66
2022-08-25T17:48:35.879Z,100187.56
2022-08-25T17:52:39.595Z,100192.63
2022-08-25T17:56:43.111Z,100185.22
2022-08-25T18:16:30.651Z,100179.81
2022-08-25T18:20:37.041Z,100189.63
2022-08-25T18:24:41.489Z,100185.84
2022-08-25T18:28:45.409Z,100181.66
2022-08-25T18:32:51.500Z,100182.56
2022-08-25T18:37:00.643Z,100179.06
2022-08-25T18:41:08.156Z,100180.03
2022-08-25T18:45:12.430Z,100174.59
2022-08-25T18:49:20.260Z,100183.19
2022-08-25T18:53:30.498Z,100179.06
2022-08-25T18:57:42.721Z,100186.22
2022-08-25T19:01:46.020Z,100181.53
2022-08-25T19:05:51.819Z,100186.31
2022-08-25T19:10:00.603Z,100187.56
2022-08-25T19:14:04.228Z,100181.41
2022-08-25T19:18:16.207Z,100189.75
2022-08-25T19:22:40.547Z,100184.06
2022-08-25T19:26:45.862Z,100193.63
2022-08-25T19:30:50.677Z,100185.91
2022-08-25T19:34:55.473Z,100189.69
2022-08-25T19:39:04.730Z,100185.50
2022-08-25T19:43:08.783Z,100188.31
2022-08-25T19:53:11.872Z,100181.38
2022-08-25T19:57:28.139Z,100189.28
2022-08-25T20:01:43.150Z,100188.88
2022-08-25T20:05:46.318Z,100195.75
2022-08-25T20:09:49.654Z,100199.50
2022-08-25T20:13:54.500Z,100200.13
2022-08-25T20:17:57.406Z,100201.53
2022-08-25T20:22:00.456Z,100197.06
2022-08-25T20:26:03.491Z,100193.09
2022-08-25T20:30:11.658Z,100193.53
2022-08-25T20:34:15.054Z,100188.97
2022-08-25T20:38:18.208Z,100200.56
2022-08-25T20:42:21.365Z,100205.56
2022-08-25T20:46:26.126Z,100201.38
2022-08-25T20:50:29.270Z,100208.34
2022-08-25T20:54:32.402Z,100216.31
2022-08-25T20:58:37.199Z,100215.91
2022-08-25T21:02:41.689Z,100220.09
2022-08-25T21:06:45.585Z,100221.91
2022-08-25T21:10:48.901Z,100214.84
2022-08-25T21:14:53.109Z,100220.25
2022-08-25T21:18:58.228Z,100212.13
2022-08-25T21:23:01.298Z,100220.25
2022-08-25T21:27:05.646Z,100223.78
2022-08-25T21:31:09.516Z,100221.94
2022-08-25T21:35:14.145Z,100228.13
2022-08-25T21:39:17.252Z,100236.59
2022-08-25T21:43:20.497Z,100234.66
2022-08-25T21:47:23.465Z,100250.72
2022-08-25T21:51:30.807Z,100258.50
2022-08-25T21:55:38.684Z,100257.66
2022-08-25T21:59:45.184Z,100257.66
2022-08-25T22:03:48.808Z,100264.25
2022-08-25T22:07:53.671Z,100268.78
2022-08-25T22:11:57.431Z,100267.88
2022-08-25T22:16:02.109Z,100273.25
2022-08-25T22:20:06.860Z,100282.38
2022-08-25T22:24:12.407Z,100276.09
2022-08-25T22:28:15.822Z,100292.06
2022-08-25T22:32:19.036Z,100304.75
2022-08-25T22:36:27.657Z,100299.69
2022-08-25T22:40:35.282Z,100308.72
2022-08-25T22:44:39.413Z,100318.53
2022-08-25T22:48:43.013Z,100319.50
2022-08-25T22:52:46.494Z,100332.31
2022-08-25T22:56:52.171Z,100347.88
2022-08-25T23:00:55.252Z,100350.50
2022-08-25T23:05:00.869Z,100355.00
2022-08-25T23:09:05.826Z,100365.09
2022-08-25T23:13:10.317Z,100368.72
2022-08-25T23:17:22.615Z,100370.88
2022-08-25T23:21:43.449Z,100363.34
2022-08-25T23:25:46.522Z,100376.00
2022-08-25T23:29:51.362Z,100372.69
2022-08-25T23:33:54.461Z,100376.34
2022-08-25T23:37:57.532Z,100376.06
2022-08-25T23:42:00.716Z,100390.66
2022-08-25T23:46:06.561Z,100392.91
2022-08-25T23:50:10.129Z,100396.31
2022-08-25T23:54:13.458Z,100400.50
2022-08-25T23:58:16.527Z,100395.28
